createdAt,value
2017-08-09T00:00:01.406Z,17.1
2017-08-09T00:05:01.944Z,17.1
2017-08-09T00:10:01.860Z,17.1
2017-08-09T00:15:01.750Z,17.1
2017-08-09T00:20:01.480Z,17.1
2017-08-09T00:25:01.839Z,17.1
2017-08-09T00:30:01.679Z,17
2017-08-09T00:35:01.924Z,17
2017-08-09T00:40:01.660Z,17
2017-08-09T00:45:01.551Z,17
2017-08-09T00:50:01.193Z,17
2017-08-09T00:55:01.345Z,17
2017-08-09T01:00:02.128Z,16.9
2017-08-09T01:05:01.212Z,17
2017-08-09T01:10:01.960Z,16.9
2017-08-09T01:15:01.899Z,16.9
2017-08-09T01:20:01.656Z,16.9
2017-08-09T01:25:01.789Z,16.9
2017-08-09T01:30:01.623Z,16.9
2017-08-09T01:35:01.598Z,16.8
2017-08-09T01:40:01.344Z,16.8
2017-08-09T01:45:01.455Z,16.8
2017-08-09T01:50:01.261Z,16.8
2017-08-09T01:55:01.430Z,16.8
2017-08-09T02:00:01.572Z,16.8
2017-08-09T02:05:02.123Z,16.7
2017-08-09T02:10:02.159Z,16.7
2017-08-09T02:15:01.980Z,16.7
2017-08-09T02:20:01.862Z,16.6
2017-08-09T02:25:01.633Z,16.6
2017-08-09T02:30:01.522Z,16.6
2017-08-09T02:35:01.287Z,16.6
2017-08-09T02:40:02.249Z,16.5
2017-08-09T02:45:01.217Z,16.4
2017-08-09T02:50:02.038Z,16.4
2017-08-09T02:55:01.646Z,16.4
2017-08-09T03:00:01.742Z,16.4
2017-08-09T03:05:01.973Z,16.3
2017-08-09T03:10:01.693Z,16.3
2017-08-09T03:15:01.891Z,16.3
2017-08-09T03:20:01.561Z,16.2
2017-08-09T03:25:01.631Z,16.2
2017-08-09T03:30:01.696Z,16.3
2017-08-09T03:35:02.081Z,16.3
2017-08-09T03:40:01.323Z,16.2
2017-08-09T03:45:02.127Z,16.2
2017-08-09T03:50:02.141Z,16.2
2017-08-09T03:55:01.155Z,16.1
2017-08-09T04:00:01.300Z,16
2017-08-09T04:05:01.548Z,16
2017-08-09T04:10:01.322Z,16
2017-08-09T04:15:03.480Z,15.9
2017-08-09T04:20:01.994Z,15.9
2017-08-09T04:25:02.091Z,15.9
2017-08-09T04:30:01.754Z,15.9
2017-08-09T04:35:01.218Z,15.8
2017-08-09T04:40:01.951Z,15.8
2017-08-09T04:45:02.138Z,15.8
2017-08-09T04:50:01.945Z,15.8
2017-08-09T04:55:01.790Z,15.8
2017-08-09T05:00:02.167Z,15.8
2017-08-09T05:05:01.297Z,15.8
2017-08-09T05:10:01.212Z,15.8
2017-08-09T05:15:01.633Z,15.8
2017-08-09T05:20:01.805Z,15.8
2017-08-09T05:25:01.783Z,15.8
2017-08-09T05:30:01.872Z,15.8
2017-08-09T05:35:01.887Z,15.9
2017-08-09T05:40:01.555Z,16
2017-08-09T05:45:01.333Z,16
2017-08-09T05:50:01.337Z,16
2017-08-09T05:55:01.853Z,16
2017-08-09T06:00:01.957Z,15.9
2017-08-09T06:05:01.851Z,15.9
2017-08-09T06:10:01.790Z,15.9
2017-08-09T06:15:01.501Z,15.9
2017-08-09T06:20:01.198Z,16.1
2017-08-09T06:25:01.697Z,16.2
2017-08-09T06:30:01.727Z,16.4
2017-08-09T06:35:02.067Z,16.4
2017-08-09T06:40:01.825Z,16.4
2017-08-09T06:45:01.635Z,16.4
2017-08-09T06:50:01.743Z,16.4
2017-08-09T06:55:01.385Z,16.4
2017-08-09T07:00:01.453Z,16.6
2017-08-09T07:05:01.871Z,16.7
2017-08-09T07:10:02.043Z,16.8
2017-08-09T07:15:01.560Z,16.9
2017-08-09T07:20:01.296Z,16.9
2017-08-09T07:25:01.167Z,16.9
2017-08-09T07:30:01.261Z,17.2
2017-08-09T07:35:01.874Z,17.4
2017-08-09T07:40:01.518Z,17.4
2017-08-09T07:45:02.174Z,17.4
2017-08-09T07:50:02.197Z,17.7
2017-08-09T07:55:02.005Z,17.9
2017-08-09T08:00:01.171Z,18.1
2017-08-09T08:05:01.457Z,18.2
2017-08-09T08:10:01.444Z,18.2
2017-08-09T08:15:01.807Z,18.5
2017-08-09T08:20:01.524Z,18.6
2017-08-09T08:25:01.787Z,18.9
2017-08-09T08:30:01.767Z,19
2017-08-09T08:35:01.678Z,19.2
2017-08-09T08:40:01.473Z,19.4
2017-08-09T08:45:02.029Z,19.5
2017-08-09T08:50:02.002Z,19.5
2017-08-09T08:55:01.791Z,19.5
2017-08-09T09:00:01.316Z,20
2017-08-09T09:05:02.130Z,20
2017-08-09T09:10:01.462Z,20
2017-08-09T09:15:01.823Z,20
2017-08-09T09:20:01.524Z,20
2017-08-09T09:25:01.296Z,20.9
2017-08-09T09:30:01.676Z,20.9
2017-08-09T09:35:01.606Z,20.9
2017-08-09T09:40:01.359Z,20.9
2017-08-09T09:45:01.660Z,20.9
2017-08-09T09:50:01.726Z,21.9
2017-08-09T09:55:01.894Z,21.9
2017-08-09T10:00:01.280Z,22
2017-08-09T10:05:01.651Z,22
2017-08-09T10:10:01.466Z,21.9
2017-08-09T10:15:01.852Z,21.8
2017-08-09T10:20:01.679Z,21.8
2017-08-09T10:25:02.076Z,22
2017-08-09T10:30:01.351Z,22
2017-08-09T10:35:01.974Z,22
2017-08-09T10:40:01.642Z,22
2017-08-09T10:45:01.561Z,22
2017-08-09T10:50:01.511Z,21.6
2017-08-09T10:55:01.237Z,21.6
2017-08-09T11:00:01.654Z,21.6
2017-08-09T11:05:01.714Z,21.6
2017-08-09T11:10:01.512Z,21.1
2017-08-09T11:15:01.861Z,21.1
2017-08-09T11:20:01.634Z,21.1
2017-08-09T11:25:01.851Z,21.1
2017-08-09T11:30:02.074Z,21.1
2017-08-09T11:35:01.995Z,21.2
2017-08-09T11:40:01.613Z,21.2
2017-08-09T11:45:02.039Z,21.2
2017-08-09T11:50:01.955Z,21.2
2017-08-09T11:55:01.359Z,21.2
2017-08-09T12:00:01.738Z,21.1
2017-08-09T12:05:01.526Z,21.1
2017-08-09T12:10:01.296Z,21.2
2017-08-09T12:15:01.244Z,21.2
2017-08-09T12:20:01.968Z,21.6
2017-08-09T12:25:01.869Z,21.6
2017-08-09T12:30:01.535Z,21.6
2017-08-09T12:35:01.619Z,21.6
2017-08-09T12:40:01.242Z,21.8
2017-08-09T12:45:01.335Z,21.8
2017-08-09T12:50:01.830Z,21.8
2017-08-09T12:55:02.102Z,21.8
2017-08-09T13:00:01.415Z,21.8
2017-08-09T13:05:01.541Z,21.8
2017-08-09T13:10:01.881Z,22.1
2017-08-09T13:15:01.645Z,22.1
2017-08-09T13:20:01.769Z,22.1
2017-08-09T13:25:01.818Z,22.1
2017-08-09T13:30:01.557Z,22
2017-08-09T13:35:01.948Z,22
2017-08-09T13:40:02.023Z,22
2017-08-09T13:45:01.420Z,22
2017-08-09T13:50:01.772Z,22
2017-08-09T13:55:02.106Z,22
2017-08-09T14:00:01.702Z,22
2017-08-09T14:05:02.034Z,22
2017-08-09T14:10:02.186Z,21.9
2017-08-09T14:15:01.808Z,22
2017-08-09T14:20:01.503Z,22
2017-08-09T14:25:01.491Z,22
2017-08-09T14:30:01.547Z,22
2017-08-09T14:35:01.284Z,22
2017-08-09T14:40:01.991Z,22.1
2017-08-09T14:45:01.611Z,22.2
2017-08-09T14:50:01.658Z,22.2
2017-08-09T14:55:01.669Z,22.2
2017-08-09T15:00:01.780Z,22.1
2017-08-09T15:05:01.273Z,22.1
2017-08-09T15:10:02.121Z,22.1
2017-08-09T15:15:01.178Z,22
2017-08-09T15:20:01.969Z,22
2017-08-09T15:25:01.828Z,22
2017-08-09T15:30:01.865Z,21.9
2017-08-09T15:35:01.809Z,21.8
2017-08-09T15:40:01.559Z,21.8
2017-08-09T15:45:01.708Z,21.8
2017-08-09T15:50:02.463Z,21.8
2017-08-09T15:55:01.402Z,21.8
2017-08-09T16:00:02.173Z,21.8
2017-08-09T16:05:01.947Z,21.7
2017-08-09T16:10:01.859Z,21.7
2017-08-09T16:15:01.344Z,21.7
2017-08-09T16:20:01.331Z,21.7
2017-08-09T16:25:02.026Z,21.7
2017-08-09T16:30:02.014Z,21.6
2017-08-09T16:35:01.837Z,21.6
2017-08-09T16:40:01.582Z,21.6
2017-08-09T16:45:01.226Z,21.6
2017-08-09T16:50:01.194Z,21.4
2017-08-09T16:55:01.972Z,21.4
2017-08-09T17:00:02.127Z,21.4
2017-08-09T17:05:01.956Z,21.4
2017-08-09T17:10:01.752Z,21.3
2017-08-09T17:15:01.393Z,21.3
2017-08-09T17:20:01.570Z,21.3
2017-08-09T17:25:02.230Z,21.2
2017-08-09T17:30:01.513Z,21.2
2017-08-09T17:35:01.423Z,21.2
2017-08-09T17:40:01.629Z,21.2
2017-08-09T17:45:01.163Z,21.2
2017-08-09T17:50:01.381Z,21.2
2017-08-09T17:55:01.738Z,21.2
2017-08-09T18:00:02.065Z,20.7
2017-08-09T18:05:01.619Z,20.6
2017-08-09T18:10:01.545Z,20.5
2017-08-09T18:15:02.163Z,20.5
2017-08-09T18:20:02.367Z,20.5
2017-08-09T18:25:01.475Z,20.5
2017-08-09T18:30:01.250Z,20.5
2017-08-09T18:35:01.438Z,20
2017-08-09T18:40:01.905Z,19.9
2017-08-09T18:45:01.892Z,19.8
2017-08-09T18:50:02.062Z,19.8
2017-08-09T18:55:01.789Z,19.8
2017-08-09T19:00:01.321Z,19.4
2017-08-09T19:05:02.074Z,19.2
2017-08-09T19:10:01.313Z,19.2
2017-08-09T19:15:01.660Z,19
2017-08-09T19:20:01.280Z,18.8
2017-08-09T19:25:01.275Z,18.8
2017-08-09T19:30:01.595Z,18.6
2017-08-09T19:35:02.051Z,18.5
2017-08-09T19:40:01.348Z,18.3
2017-08-09T19:45:01.690Z,18.3
2017-08-09T19:50:02.220Z,18.1
2017-08-09T19:55:01.282Z,17.9
2017-08-09T20:00:01.421Z,17.8
2017-08-09T20:05:01.751Z,17.6
2017-08-09T20:10:01.646Z,17.5
2017-08-09T20:15:01.790Z,17.5
2017-08-09T20:20:02.100Z,17.2
2017-08-09T20:25:01.712Z,17.2
2017-08-09T20:30:02.111Z,16.9
2017-08-09T20:35:01.479Z,16.8
2017-08-09T20:40:01.643Z,16.6
2017-08-09T20:45:01.635Z,16.4
2017-08-09T20:50:01.418Z,16.3
2017-08-09T20:55:01.597Z,16.2
2017-08-09T21:00:01.722Z,16
2017-08-09T21:05:01.260Z,16
2017-08-09T21:10:02.034Z,16
2017-08-09T21:15:01.534Z,16
2017-08-09T21:20:01.572Z,16
2017-08-09T21:25:01.225Z,15.6
2017-08-09T21:30:01.310Z,15.6
2017-08-09T21:35:02.020Z,15.4
2017-08-09T21:40:01.603Z,15.3
2017-08-09T21:45:02.171Z,15.2
2017-08-09T21:50:01.872Z,15
2017-08-09T21:55:01.771Z,15
2017-08-09T22:00:01.812Z,15
2017-08-09T22:05:01.176Z,15
2017-08-09T22:10:01.926Z,15
2017-08-09T22:15:01.645Z,15
2017-08-09T22:20:01.870Z,15
2017-08-09T22:25:01.782Z,15
2017-08-09T22:30:01.597Z,15
2017-08-09T22:35:01.442Z,15
2017-08-09T22:40:01.236Z,14.7
2017-08-09T22:45:01.659Z,14.7
2017-08-09T22:50:01.370Z,14.5
2017-08-09T22:55:01.295Z,14.4
2017-08-09T23:00:02.075Z,14.3
2017-08-09T23:05:01.953Z,14.2
2017-08-09T23:10:01.690Z,14.1
2017-08-09T23:15:01.328Z,14
2017-08-09T23:20:02.033Z,14
2017-08-09T23:25:02.150Z,13.9
2017-08-09T23:30:01.908Z,13.8
2017-08-09T23:35:01.691Z,13.7
2017-08-09T23:40:01.463Z,13.6
2017-08-09T23:45:02.091Z,13.6
2017-08-09T23:50:01.811Z,13.6
2017-08-09T23:55:01.168Z,13.5
